Time;durP1;ratioP1;P1;durP2;ratioP2;P2;SDS_P1;SDS_P2;PMS_P1;PMS_P2;Temp;Humidity;BMP_temperature;BMP_pressure;BME280_temperature;BME280_humidity;BME280_pressure;Samples;Min_cycle;Max_cycle;Signal;HPM_P1;HPM_P2
2022/10/19 00:01:39;;;;;;;12.65;4.60;;;12.80;99.90;;;;;;4983300;28;20041;-78
2022/10/19 00:04:04;;;;;;;8.77;3.88;;;12.90;99.90;;;;;;4986008;28;20061;-77
2022/10/19 00:06:32;;;;;;;4.47;3.45;;;12.90;99.90;;;;;;4986873;28;20500;-76
2022/10/19 00:09:02;;;;;;;5.57;3.65;;;13.00;99.90;;;;;;4985766;28;20035;-77
2022/10/19 00:11:29;;;;;;;13.18;4.10;;;13.00;99.90;;;;;;4987804;28;20046;-76
2022/10/19 00:13:56;;;;;;;15.73;5.45;;;12.90;99.90;;;;;;4984556;28;20522;-78
2022/10/19 00:16:23;;;;;;;20.85;5.90;;;12.80;99.90;;;;;;4985961;28;20177;-77
2022/10/19 00:18:49;;;;;;;84.68;16.20;;;12.80;99.90;;;;;;4985883;28;20603;-77
2022/10/19 00:21:17;;;;;;;127.15;25.63;;;12.80;99.90;;;;;;4986609;28;20033;-77
2022/10/19 00:23:44;;;;;;;131.32;27.77;;;12.90;99.90;;;;;;4984456;28;20045;-77
2022/10/19 00:26:11;;;;;;;39.85;9.65;;;12.90;99.90;;;;;;4980205;28;20140;-77
2022/10/19 00:28:37;;;;;;;59.15;13.40;;;13.00;99.90;;;;;;4983862;28;20398;-77
2022/10/19 00:31:08;;;;;;;58.72;13.55;;;13.00;99.90;;;;;;4982924;28;20041;-77
2022/10/19 00:33:34;;;;;;;73.97;17.05;;;12.90;99.90;;;;;;4983244;28;20034;-77
2022/10/19 00:36:01;;;;;;;28.55;9.85;;;12.90;99.90;;;;;;4981338;28;20038;-77
2022/10/19 00:38:27;;;;;;;14.77;5.90;;;12.90;99.90;;;;;;4981309;28;20030;-76
2022/10/19 00:40:52;;;;;;;11.10;5.50;;;12.80;99.90;;;;;;4987752;28;20038;-76
2022/10/19 00:43:24;;;;;;;9.75;4.35;;;12.70;99.90;;;;;;5000339;28;20034;-77
2022/10/19 00:45:51;;;;;;;8.02;3.92;;;12.70;99.90;;;;;;4998023;28;20042;-78
2022/10/19 00:48:25;;;;;;;15.43;5.03;;;12.70;99.90;;;;;;4983583;28;20447;-77
2022/10/19 00:50:55;;;;;;;10.30;4.68;;;12.70;99.90;;;;;;4983362;28;20041;-77
2022/10/19 00:53:22;;;;;;;9.23;4.20;;;12.70;99.90;;;;;;4988418;28;20030;-77
2022/10/19 00:55:48;;;;;;;10.67;4.50;;;12.80;99.90;;;;;;4986400;28;20042;-77
2022/10/19 00:58:14;;;;;;;20.27;5.53;;;12.80;99.90;;;;;;4997271;28;20047;-77
2022/10/19 01:00:39;;;;;;;20.38;4.95;;;12.90;99.90;;;;;;4985167;28;20120;-84
2022/10/19 01:03:07;;;;;;;23.70;5.28;;;12.70;99.90;;;;;;4980874;28;20150;-84
2022/10/19 01:05:33;;;;;;;13.82;4.60;;;12.60;99.90;;;;;;4980268;28;20609;-84
2022/10/19 01:08:00;;;;;;;14.40;4.90;;;12.60;99.90;;;;;;4984397;28;20096;-83
2022/10/19 01:10:51;;;;;;;12.02;5.07;;;12.60;99.90;;;;;;4985099;28;20034;-84
2022/10/19 01:13:28;;;;;;;8.18;4.68;;;12.30;99.90;;;;;;4987927;28;20037;-84
2022/10/19 01:16:08;;;;;;;12.75;4.95;;;12.40;99.90;;;;;;4985063;28;20026;-84
2022/10/19 01:19:20;;;;;;;12.90;5.68;;;12.50;99.90;;;;;;4987101;28;20042;-84
2022/10/19 01:22:13;;;;;;;23.77;4.38;;;12.60;99.90;;;;;;4983583;28;20042;-85
2022/10/19 01:25:11;;;;;;;31.35;7.53;;;12.50;99.90;;;;;;4987255;28;20471;-82
2022/10/19 01:27:46;;;;;;;;;;;12.40;99.90;;;;;;4984252;28;20046;-84
2022/10/19 01:30:28;;;;;;;7.07;4.03;;;12.30;99.90;;;;;;4988226;28;19917;-84
2022/10/19 01:32:58;;;;;;;12.32;5.18;;;12.40;99.90;;;;;;4987120;28;20073;-84
2022/10/19 01:35:34;;;;;;;10.10;4.70;;;12.50;99.90;;;;;;4984594;28;20126;-84
2022/10/19 01:38:27;;;;;;;8.57;4.03;;;12.50;99.90;;;;;;4982742;28;20333;-84
2022/10/19 01:41:07;;;;;;;7.97;4.20;;;12.60;99.90;;;;;;4979896;28;20247;-84
2022/10/19 01:44:04;;;;;;;8.02;4.40;;;12.60;99.90;;;;;;4983284;28;20042;-84
2022/10/19 01:46:37;;;;;;;7.70;4.57;;;12.70;99.90;;;;;;4986772;28;20379;-83
2022/10/19 01:49:14;;;;;;;13.85;4.95;;;12.70;99.90;;;;;;4986910;28;20026;-84
2022/10/19 01:51:50;;;;;;;9.48;4.45;;;12.80;99.90;;;;;;4987230;28;20588;-84
2022/10/19 01:54:19;;;;;;;37.80;5.68;;;12.80;99.90;;;;;;4986014;28;20050;-84
2022/10/19 01:56:48;;;;;;;13.52;4.47;;;12.80;99.90;;;;;;4985726;28;20026;-83
2022/10/19 01:59:16;;;;;;;37.83;7.18;;;12.80;99.90;;;;;;4986830;28;20570;-84
2022/10/19 02:01:43;;;;;;;;;;;12.80;99.90;;;;;;4987311;28;20070;-84
2022/10/19 02:04:12;;;;;;;13.27;5.15;;;12.70;99.90;;;;;;4990008;28;20335;-85
2022/10/19 02:06:38;;;;;;;21.02;4.50;;;12.80;99.90;;;;;;4985252;28;20053;-84
2022/10/19 02:09:04;;;;;;;9.73;4.00;;;12.70;99.90;;;;;;4993289;28;20030;-85
2022/10/19 02:11:31;;;;;;;8.18;4.35;;;12.70;99.90;;;;;;5007126;28;20042;-84
2022/10/19 02:14:08;;;;;;;5.80;3.90;;;12.70;99.90;;;;;;4989273;28;20049;-85
2022/10/19 02:16:43;;;;;;;7.38;4.32;;;12.80;99.90;;;;;;4983571;28;20030;-84
2022/10/19 02:19:12;;;;;;;13.63;3.60;;;12.80;99.90;;;;;;4993294;28;20037;-85
2022/10/19 02:21:37;;;;;;;;;;;12.80;99.90;;;;;;4991498;28;20105;-84
2022/10/19 02:24:03;;;;;;;63.00;7.80;;;12.80;99.90;;;;;;4990233;28;20017;-84
2022/10/19 02:26:29;;;;;;;6.32;4.22;;;12.80;99.90;;;;;;4985338;28;20116;-84
2022/10/19 02:28:55;;;;;;;5.25;3.70;;;12.80;99.90;;;;;;4988688;28;20041;-85
2022/10/19 02:31:21;;;;;;;5.13;3.65;;;12.80;99.90;;;;;;5004646;28;20042;-84
2022/10/19 02:33:47;;;;;;;7.43;3.80;;;12.80;99.90;;;;;;4984424;28;20529;-84
2022/10/19 02:36:13;;;;;;;5.28;3.78;;;12.80;99.90;;;;;;4984598;28;20080;-84
2022/10/19 02:38:40;;;;;;;6.47;3.95;;;12.80;99.90;;;;;;4992302;28;20026;-84
2022/10/19 02:41:14;;;;;;;5.28;4.00;;;12.80;99.90;;;;;;4985511;28;20030;-85
2022/10/19 02:43:42;;;;;;;7.35;4.47;;;12.80;99.90;;;;;;4990542;28;20491;-84
2022/10/19 02:46:17;;;;;;;6.63;4.32;;;12.80;99.90;;;;;;4988148;28;20038;-85
2022/10/19 02:48:43;;;;;;;7.18;4.10;;;12.80;99.90;;;;;;4984582;28;20046;-84
2022/10/19 02:51:38;;;;;;;11.63;4.70;;;12.90;99.90;;;;;;4989056;28;20042;-85
2022/10/19 02:54:06;;;;;;;8.20;4.60;;;12.90;99.90;;;;;;4987141;28;20076;-85
2022/10/19 02:56:33;;;;;;;7.63;4.15;;;13.00;99.90;;;;;;4984583;28;20035;-84
2022/10/19 02:59:00;;;;;;;9.25;4.47;;;13.00;99.90;;;;;;4986962;28;20058;-84
2022/10/19 03:01:26;;;;;;;9.25;4.55;;;13.00;99.90;;;;;;4990027;28;20034;-85
2022/10/19 03:03:51;;;;;;;7.25;4.22;;;13.00;99.90;;;;;;4990257;28;20050;-84
2022/10/19 03:06:17;;;;;;;7.45;4.40;;;13.00;99.90;;;;;;4987243;28;20118;-85
2022/10/19 03:08:43;;;;;;;23.58;4.72;;;13.00;99.90;;;;;;4988413;28;20042;-84
2022/10/19 03:11:09;;;;;;;19.65;5.05;;;13.00;99.90;;;;;;4989249;28;20109;-85
2022/10/19 03:13:35;;;;;;;37.08;5.97;;;12.90;99.90;;;;;;4991987;28;20022;-84
2022/10/19 03:16:11;;;;;;;29.05;6.60;;;12.90;99.90;;;;;;5004168;28;20102;-84
2022/10/19 03:18:36;;;;;;;13.95;4.70;;;12.80;99.90;;;;;;5003481;28;20145;-84
2022/10/19 03:21:07;;;;;;;11.20;4.75;;;12.80;99.90;;;;;;4991945;28;20082;-85
2022/10/19 03:23:33;;;;;;;22.60;5.50;;;12.90;99.90;;;;;;4987504;28;20011;-85
2022/10/19 03:25:59;;;;;;;12.00;4.57;;;12.80;99.90;;;;;;4989254;28;20022;-85
2022/10/19 03:28:25;;;;;;;11.52;5.05;;;12.80;99.90;;;;;;4986121;28;20038;-84
2022/10/19 03:30:51;;;;;;;8.55;4.28;;;12.80;99.90;;;;;;4987400;28;20073;-85
2022/10/19 03:33:16;;;;;;;18.63;4.97;;;12.80;99.90;;;;;;4987593;28;20589;-84
2022/10/19 03:35:42;;;;;;;7.82;4.60;;;12.90;99.90;;;;;;4989269;28;20046;-84
2022/10/19 03:38:07;;;;;;;9.80;5.07;;;12.90;99.90;;;;;;4983762;28;20150;-84
2022/10/19 03:40:33;;;;;;;11.95;5.13;;;12.90;99.90;;;;;;4986445;28;20048;-84
2022/10/19 03:42:59;;;;;;;8.73;5.00;;;12.90;99.90;;;;;;4990125;28;20058;-85
2022/10/19 03:45:24;;;;;;;8.18;4.60;;;12.90;99.90;;;;;;4993501;28;20090;-85
2022/10/19 03:47:51;;;;;;;8.73;4.45;;;12.90;99.90;;;;;;4988489;28;20066;-85
2022/10/19 03:50:17;;;;;;;9.25;5.00;;;13.00;99.90;;;;;;4992459;28;20477;-84
2022/10/19 03:52:43;;;;;;;11.07;5.32;;;13.00;99.90;;;;;;4990396;28;20038;-84
2022/10/19 03:55:09;;;;;;;7.65;4.75;;;13.00;99.90;;;;;;4991488;28;20053;-84
2022/10/19 03:57:36;;;;;;;8.65;5.32;;;13.00;99.90;;;;;;4982760;28;20046;-84
2022/10/19 04:00:04;;;;;;;8.30;4.53;;;13.10;99.90;;;;;;4991925;28;20105;-85
2022/10/19 04:02:29;;;;;;;8.30;5.25;;;13.10;99.90;;;;;;4987976;28;20092;-85
2022/10/19 04:04:55;;;;;;;9.85;5.45;;;13.10;99.90;;;;;;4988184;28;20488;-84
2022/10/19 04:07:21;;;;;;;9.20;5.57;;;13.10;99.90;;;;;;4985665;28;20037;-85
2022/10/19 04:09:46;;;;;;;9.18;5.38;;;13.10;99.90;;;;;;4987105;28;20479;-85
2022/10/19 04:12:12;;;;;;;11.10;6.13;;;13.10;99.90;;;;;;4986672;28;20042;-85
2022/10/19 04:14:37;;;;;;;11.70;5.85;;;13.10;99.90;;;;;;4987515;28;20015;-84
2022/10/19 04:17:03;;;;;;;9.95;5.63;;;13.20;99.90;;;;;;4987587;28;20022;-84
2022/10/19 04:19:30;;;;;;;13.45;6.18;;;13.20;99.90;;;;;;4987637;28;20034;-85
2022/10/19 04:21:56;;;;;;;12.18;6.18;;;13.20;99.90;;;;;;4989264;28;20040;-81
2022/10/19 04:24:21;;;;;;;11.07;6.00;;;13.20;99.90;;;;;;4988534;28;20026;-85
2022/10/19 04:26:50;;;;;;;11.98;6.43;;;13.30;99.90;;;;;;4987237;28;20073;-84
2022/10/19 04:29:18;;;;;;;13.68;6.45;;;13.20;99.90;;;;;;4984075;28;20037;-84
2022/10/19 04:31:44;;;;;;;12.80;6.53;;;13.30;99.90;;;;;;4982986;28;20057;-85
2022/10/19 04:34:11;;;;;;;13.95;7.80;;;13.30;99.90;;;;;;4985978;28;20129;-84
2022/10/19 04:36:37;;;;;;;13.55;7.30;;;13.30;99.90;;;;;;4999776;28;20053;-85
2022/10/19 04:39:04;;;;;;;14.00;7.07;;;13.30;99.90;;;;;;4984069;28;20439;-84
2022/10/19 04:41:30;;;;;;;14.15;7.75;;;13.30;99.90;;;;;;4989810;28;20085;-84
2022/10/19 04:43:58;;;;;;;15.35;7.40;;;13.30;99.90;;;;;;4988817;28;20089;-84
2022/10/19 04:46:25;;;;;;;12.38;6.53;;;13.30;99.90;;;;;;4989530;28;20034;-85
2022/10/19 04:48:51;;;;;;;14.13;7.40;;;13.30;99.90;;;;;;4984468;28;20038;-84
2022/10/19 04:51:18;;;;;;;12.38;6.63;;;13.30;99.90;;;;;;4991955;28;20109;-84
2022/10/19 04:53:45;;;;;;;14.30;7.47;;;13.40;99.90;;;;;;4983367;28;20544;-85
2022/10/19 04:56:17;;;;;;;12.27;7.22;;;13.40;99.90;;;;;;4989609;28;20037;-85
2022/10/19 04:58:42;;;;;;;13.23;6.63;;;13.30;99.90;;;;;;4989145;28;20112;-85
2022/10/19 05:01:29;;;;;;;11.27;6.57;;;13.40;99.90;;;;;;4988359;28;20035;-85
2022/10/19 05:03:57;;;;;;;13.02;7.13;;;13.40;99.90;;;;;;4986964;28;20042;-84
2022/10/19 05:06:23;;;;;;;;;;;13.40;99.90;;;;;;4987212;28;20030;-85
2022/10/19 05:08:49;;;;;;;14.60;7.03;;;13.40;99.90;;;;;;4983415;28;19917;-84
2022/10/19 05:11:16;;;;;;;14.38;7.03;;;13.30;99.90;;;;;;4991619;28;20121;-85
2022/10/19 05:13:42;;;;;;;15.18;6.93;;;13.30;99.90;;;;;;4986890;28;20027;-84
2022/10/19 05:16:11;;;;;;;14.02;7.75;;;13.40;99.90;;;;;;4990847;28;20033;-84
2022/10/19 05:18:37;;;;;;;14.15;7.50;;;13.40;99.90;;;;;;4984446;28;20037;-84
2022/10/19 05:21:09;;;;;;;11.57;7.22;;;13.40;99.90;;;;;;4983473;28;20038;-84
2022/10/19 05:23:35;;;;;;;15.48;8.98;;;13.40;99.90;;;;;;4986288;28;20030;-84
2022/10/19 05:26:09;;;;;;;14.43;7.63;;;13.30;99.90;;;;;;4982813;28;20087;-84
2022/10/19 05:28:35;;;;;;;13.50;7.72;;;13.30;99.90;;;;;;4982251;28;20040;-84
2022/10/19 05:31:13;;;;;;;14.15;7.97;;;13.40;99.90;;;;;;4982759;28;20049;-84
2022/10/19 05:33:39;;;;;;;12.82;8.05;;;13.40;99.90;;;;;;4980102;28;20251;-84
2022/10/19 05:36:11;;;;;;;14.25;8.02;;;13.40;99.90;;;;;;4984686;28;20031;-84
2022/10/19 05:38:36;;;;;;;13.98;8.73;;;13.40;99.90;;;;;;4986699;28;20549;-83
2022/10/19 05:41:02;;;;;;;14.40;8.43;;;13.40;99.90;;;;;;4985204;28;21181;-83
2022/10/19 05:43:28;;;;;;;16.80;9.40;;;13.40;99.90;;;;;;4985273;28;20041;-84
2022/10/19 05:45:54;;;;;;;19.58;10.57;;;13.50;99.90;;;;;;4981602;28;20116;-83
2022/10/19 05:48:19;;;;;;;22.90;10.80;;;13.50;99.90;;;;;;4984335;28;20046;-82
2022/10/19 05:50:52;;;;;;;14.35;8.68;;;13.50;99.90;;;;;;4985267;28;20097;-83
2022/10/19 05:53:18;;;;;;;15.45;8.85;;;13.50;99.90;;;;;;4999046;28;20085;-82
2022/10/19 05:55:44;;;;;;;16.40;8.77;;;13.50;99.90;;;;;;4984216;28;20636;-82
2022/10/19 05:58:10;;;;;;;15.02;8.68;;;13.60;99.90;;;;;;4985107;28;20375;-83
2022/10/19 06:00:35;;;;;;;16.77;7.93;;;13.60;99.90;;;;;;4984609;28;20038;-83
2022/10/19 06:03:01;;;;;;;13.85;9.00;;;13.60;99.90;;;;;;4986454;28;20030;-82
2022/10/19 06:05:27;;;;;;;12.82;7.70;;;13.60;99.90;;;;;;4987558;28;20821;-83
2022/10/19 06:07:52;;;;;;;16.08;8.07;;;13.60;99.90;;;;;;5003627;28;20523;-83
2022/10/19 06:10:19;;;;;;;14.93;8.18;;;13.60;99.90;;;;;;4986562;28;20026;-83
2022/10/19 06:12:45;;;;;;;15.85;8.25;;;13.60;99.90;;;;;;4986340;28;20487;-83
2022/10/19 06:15:11;;;;;;;11.93;7.32;;;13.60;99.90;;;;;;4982766;28;20045;-83
2022/10/19 06:17:37;;;;;;;13.05;7.63;;;13.50;99.90;;;;;;4999706;28;20113;-83
2022/10/19 06:20:03;;;;;;;14.13;8.60;;;13.60;99.90;;;;;;4986806;28;20065;-83
2022/10/19 06:22:29;;;;;;;15.75;8.48;;;13.50;99.90;;;;;;4984522;28;20042;-83
2022/10/19 06:24:55;;;;;;;15.30;8.75;;;13.60;99.90;;;;;;5000563;28;20037;-83
2022/10/19 06:27:21;;;;;;;16.38;8.48;;;13.60;99.90;;;;;;4984672;28;20034;-83
2022/10/19 06:29:47;;;;;;;13.23;8.32;;;13.50;99.90;;;;;;4984566;28;20150;-82
2022/10/19 06:32:13;;;;;;;16.05;8.88;;;13.60;99.90;;;;;;4983116;28;20093;-83
2022/10/19 06:34:39;;;;;;;16.73;9.02;;;13.60;99.90;;;;;;4985700;28;20035;-84
2022/10/19 06:37:04;;;;;;;14.73;8.57;;;13.60;99.90;;;;;;4984078;28;20034;-83
2022/10/19 06:39:30;;;;;;;13.93;8.23;;;13.70;99.90;;;;;;4978622;28;20030;-83
2022/10/19 06:41:56;;;;;;;14.63;7.55;;;13.70;99.90;;;;;;4988761;28;20030;-82
2022/10/19 06:44:21;;;;;;;13.05;7.93;;;13.70;99.90;;;;;;4985917;28;20487;-83
2022/10/19 06:46:47;;;;;;;15.15;8.85;;;13.80;99.90;;;;;;4984865;28;20038;-83
2022/10/19 06:49:13;;;;;;;14.00;8.00;;;13.70;99.90;;;;;;4983835;28;20034;-83
2022/10/19 06:51:39;;;;;;;13.98;8.90;;;13.80;99.90;;;;;;4983486;28;20039;-83
2022/10/19 06:54:05;;;;;;;12.40;7.88;;;13.90;99.90;;;;;;4984118;28;20069;-83
2022/10/19 06:56:31;;;;;;;13.93;8.73;;;13.80;99.90;;;;;;4982121;28;20100;-83
2022/10/19 06:58:57;;;;;;;14.65;8.30;;;13.90;99.90;;;;;;4983944;28;20046;-84
2022/10/19 07:01:24;;;;;;;15.65;8.60;;;13.90;99.90;;;;;;4981417;28;20048;-84
2022/10/19 07:03:54;;;;;;;13.27;8.18;;;13.90;99.90;;;;;;4982185;28;20116;-84
2022/10/19 07:06:20;;;;;;;14.65;8.55;;;13.90;99.90;;;;;;4985166;28;20114;-83
2022/10/19 07:08:45;;;;;;;11.77;8.23;;;13.90;99.90;;;;;;4982378;28;20042;-82
2022/10/19 07:11:15;;;;;;;16.63;9.23;;;13.90;99.90;;;;;;4984406;28;20053;-84
2022/10/19 07:13:44;;;;;;;15.52;9.48;;;14.00;99.90;;;;;;4982695;28;20121;-85
2022/10/19 07:16:15;;;;;;;15.18;8.98;;;14.00;99.90;;;;;;4984190;28;20186;-85
2022/10/19 07:18:41;;;;;;;16.83;9.55;;;14.10;99.90;;;;;;4982712;28;20088;-84
2022/10/19 07:21:10;;;;;;;14.38;9.32;;;14.10;99.90;;;;;;4985037;28;20038;-84
2022/10/19 07:23:38;;;;;;;13.60;8.45;;;14.10;99.90;;;;;;4984805;28;20034;-85
2022/10/19 07:26:27;;;;;;;13.03;8.23;;;14.10;99.90;;;;;;4990624;28;20385;-84
2022/10/19 07:28:55;;;;;;;15.30;9.25;;;14.10;99.90;;;;;;4987630;28;20046;-84
2022/10/19 07:31:22;;;;;;;14.65;8.18;;;14.10;99.90;;;;;;4981084;28;20125;-83
2022/10/19 07:33:56;;;;;;;15.82;8.50;;;14.20;99.90;;;;;;4983871;28;20119;-85
2022/10/19 07:36:22;;;;;;;13.05;8.75;;;14.30;99.90;;;;;;4981017;28;20038;-84
2022/10/19 07:38:48;;;;;;;18.15;9.10;;;14.20;99.90;;;;;;4984455;28;20030;-83
2022/10/19 07:41:16;;;;;;;13.23;8.45;;;14.30;99.90;;;;;;4982790;28;20128;-85
2022/10/19 07:43:44;;;;;;;14.38;8.27;;;14.30;99.90;;;;;;4985691;28;20033;-84
2022/10/19 07:46:18;;;;;;;13.27;8.07;;;14.40;99.90;;;;;;4981875;28;20037;-85
2022/10/19 07:48:43;;;;;;;15.98;8.93;;;14.40;99.90;;;;;;4984349;28;20243;-84
2022/10/19 07:51:12;;;;;;;16.10;9.18;;;14.40;99.90;;;;;;4984159;28;20034;-83
2022/10/19 07:53:39;;;;;;;16.55;9.65;;;14.40;99.90;;;;;;4982823;28;20105;-83
2022/10/19 07:56:17;;;;;;;15.93;9.38;;;14.50;99.90;;;;;;4981517;28;20030;-85
2022/10/19 07:58:43;;;;;;;15.95;9.40;;;14.50;99.90;;;;;;4981927;28;20043;-84
2022/10/19 08:01:11;;;;;;;18.90;9.52;;;14.50;99.90;;;;;;4982175;28;20042;-84
2022/10/19 08:03:37;;;;;;;16.92;9.02;;;14.50;99.90;;;;;;4983732;28;20383;-85
2022/10/19 08:06:05;;;;;;;14.50;9.43;;;14.50;99.90;;;;;;4983471;28;20038;-84
2022/10/19 08:08:32;;;;;;;12.98;7.93;;;14.60;99.90;;;;;;4983549;28;20039;-84
2022/10/19 08:11:08;;;;;;;14.90;8.48;;;14.60;99.90;;;;;;4985472;28;20732;-84
2022/10/19 08:13:33;;;;;;;13.00;8.30;;;14.70;99.90;;;;;;4988425;28;20031;-82
2022/10/19 08:15:59;;;;;;;14.88;7.63;;;14.80;99.90;;;;;;4986677;28;20499;-84
2022/10/19 08:18:25;;;;;;;11.68;7.80;;;14.90;99.90;;;;;;4984185;28;20086;-83
2022/10/19 08:20:51;;;;;;;12.57;7.30;;;15.00;99.90;;;;;;4984997;28;20567;-85
2022/10/19 08:23:17;;;;;;;13.95;8.32;;;15.10;99.90;;;;;;4983686;28;20152;-83
2022/10/19 08:25:43;;;;;;;14.82;8.93;;;15.20;99.90;;;;;;4988791;28;20034;-84
2022/10/19 08:28:08;;;;;;;13.98;8.50;;;15.20;99.90;;;;;;4987286;28;20554;-85
2022/10/19 08:30:35;;;;;;;10.43;7.03;;;15.20;99.90;;;;;;4984520;28;20026;-84
2022/10/19 08:33:03;;;;;;;8.50;6.35;;;15.30;99.90;;;;;;4984918;28;20030;-84
2022/10/19 08:35:30;;;;;;;9.02;6.13;;;15.30;99.90;;;;;;4983129;28;20058;-85
2022/10/19 08:37:57;;;;;;;8.23;6.05;;;15.20;99.90;;;;;;4981746;28;20124;-85
2022/10/19 08:40:25;;;;;;;8.90;5.85;;;15.20;99.90;;;;;;4983269;28;20053;-84
2022/10/19 08:43:17;;;;;;;8.27;5.75;;;15.30;99.90;;;;;;4982827;28;20035;-84
2022/10/19 08:45:56;;;;;;;8.55;5.65;;;15.30;99.90;;;;;;4981601;28;20495;-85
2022/10/19 08:48:31;;;;;;;7.22;4.90;;;15.30;99.90;;;;;;4980892;28;20066;-84
2022/10/19 08:50:59;;;;;;;8.23;6.07;;;15.30;99.90;;;;;;4981517;28;20043;-85
2022/10/19 08:54:11;;;;;;;7.70;5.63;;;15.30;99.90;;;;;;4980154;28;20066;-85
2022/10/19 08:56:45;;;;;;;5.55;4.90;;;15.30;99.90;;;;;;4980597;28;20041;-84
2022/10/19 08:59:31;;;;;;;6.18;4.82;;;15.30;99.90;;;;;;4980749;28;20047;-84
2022/10/19 09:02:18;;;;;;;6.63;5.03;;;15.30;99.90;;;;;;4980716;28;20049;-85
2022/10/19 09:04:57;;;;;;;7.55;5.38;;;15.30;99.90;;;;;;4982424;28;20034;-82
2022/10/19 09:07:44;;;;;;;6.75;5.05;;;15.40;99.90;;;;;;4983087;28;20042;-82
2022/10/19 09:10:21;;;;;;;7.43;5.50;;;15.40;99.90;;;;;;4985397;28;20027;-83
2022/10/19 09:12:57;;;;;;;8.65;5.80;;;15.40;99.90;;;;;;4987170;28;20038;-84
2022/10/19 09:15:49;;;;;;;10.57;5.97;;;15.40;99.90;;;;;;4988791;28;20027;-85
2022/10/19 09:18:26;;;;;;;9.00;5.78;;;15.50;99.90;;;;;;4985366;28;20077;-84
2022/10/19 09:21:24;;;;;;;8.73;5.97;;;15.50;99.90;;;;;;4985790;28;20045;-83
2022/10/19 09:24:04;;;;;;;8.60;5.63;;;15.50;99.90;;;;;;4985279;28;20046;-83
2022/10/19 09:26:35;;;;;;;12.88;5.60;;;15.50;99.90;;;;;;4986398;28;20042;-83
2022/10/19 09:29:10;;;;;;;10.20;6.60;;;15.60;99.90;;;;;;4986662;28;20046;-84
2022/10/19 09:31:42;;;;;;;8.75;6.10;;;15.60;99.90;;;;;;4987999;28;20249;-84
2022/10/19 09:34:31;;;;;;;9.77;6.65;;;15.50;99.90;;;;;;4986672;28;20031;-85
2022/10/19 09:36:58;;;;;;;8.55;6.05;;;15.50;99.90;;;;;;4985087;28;20582;-83
2022/10/19 09:39:26;;;;;;;9.52;6.10;;;15.60;99.90;;;;;;4986171;28;20123;-83
2022/10/19 09:42:18;;;;;;;8.52;5.80;;;15.60;99.90;;;;;;4986732;28;20942;-84
2022/10/19 09:44:44;;;;;;;7.30;5.20;;;15.60;99.90;;;;;;4983312;28;20033;-83
2022/10/19 09:47:36;;;;;;;8.77;5.93;;;15.60;99.90;;;;;;4985822;28;20479;-85
2022/10/19 09:50:22;;;;;;;7.95;5.72;;;15.70;99.90;;;;;;4986234;28;20076;-84
2022/10/19 09:52:57;;;;;;;9.07;6.30;;;15.70;99.90;;;;;;4985845;28;20060;-84
2022/10/19 09:55:23;;;;;;;7.93;4.90;;;15.80;99.90;;;;;;4989865;28;20062;-84
2022/10/19 09:58:20;;;;;;;5.75;4.55;;;15.90;99.90;;;;;;4990140;28;20105;-83
2022/10/19 10:00:54;;;;;;;5.95;4.93;;;15.90;99.90;;;;;;4985713;28;20046;-84
2022/10/19 10:03:35;;;;;;;7.30;5.45;;;15.90;99.90;;;;;;4988574;28;20030;-83
2022/10/19 10:06:21;;;;;;;7.10;4.75;;;15.90;99.90;;;;;;4986399;28;20039;-84
2022/10/19 10:08:51;;;;;;;9.40;5.32;;;15.90;99.90;;;;;;4983591;28;20399;-84
2022/10/19 10:11:26;;;;;;;8.43;5.55;;;15.90;99.90;;;;;;4983547;28;20492;-84
2022/10/19 10:13:54;;;;;;;6.80;5.47;;;15.90;99.90;;;;;;4982689;28;20030;-83
2022/10/19 10:16:21;;;;;;;;;;;15.80;99.90;;;;;;4987206;28;20030;-84
2022/10/19 10:18:59;;;;;;;6.10;4.70;;;15.80;99.90;;;;;;4982479;28;20040;-84
2022/10/19 10:21:33;;;;;;;6.03;4.68;;;15.80;99.90;;;;;;4983593;28;20109;-84
2022/10/19 10:24:09;;;;;;;7.63;5.03;;;15.80;99.90;;;;;;4983691;28;20566;-84
2022/10/19 10:26:52;;;;;;;7.03;5.13;;;15.80;99.90;;;;;;4983917;28;20230;-84
2022/10/19 10:29:19;;;;;;;6.32;5.15;;;15.80;99.90;;;;;;4984014;28;20081;-84
2022/10/19 10:32:04;;;;;;;6.20;5.13;;;15.90;99.90;;;;;;4984734;28;20561;-85
2022/10/19 10:34:35;;;;;;;7.65;5.43;;;15.90;99.90;;;;;;4986194;28;20076;-84
2022/10/19 10:37:05;;;;;;;8.57;5.47;;;15.90;99.90;;;;;;4983333;28;20022;-84
2022/10/19 10:39:32;;;;;;;5.95;4.53;;;15.90;99.90;;;;;;4983804;28;20127;-85
2022/10/19 10:42:13;;;;;;;6.65;5.10;;;15.90;99.90;;;;;;4986432;28;20050;-84
2022/10/19 10:44:49;;;;;;;5.72;4.78;;;15.90;99.90;;;;;;4989448;28;20504;-84
2022/10/19 10:47:19;;;;;;;5.88;4.75;;;15.80;99.90;;;;;;4986241;28;20034;-84
2022/10/19 10:50:02;;;;;;;6.63;5.55;;;15.80;99.90;;;;;;4999356;28;20057;-84
2022/10/19 10:52:30;;;;;;;7.22;5.28;;;15.90;99.90;;;;;;4987148;28;20106;-84
2022/10/19 10:55:15;;;;;;;6.80;5.53;;;16.00;99.90;;;;;;4986398;28;20034;-86
2022/10/19 10:57:50;;;;;;;6.53;5.70;;;16.10;99.90;;;;;;4985322;28;20117;-85
2022/10/19 11:00:20;;;;;;;6.10;4.93;;;16.10;99.90;;;;;;4987322;28;20109;-85
2022/10/19 11:03:04;;;;;;;5.85;4.95;;;16.20;99.90;;;;;;4985332;28;20038;-85
2022/10/19 11:05:40;;;;;;;9.15;5.45;;;16.20;99.90;;;;;;4987870;28;20035;-85
2022/10/19 11:08:23;;;;;;;7.00;5.68;;;16.20;99.90;;;;;;4986031;28;20046;-84
2022/10/19 11:10:57;;;;;;;6.90;5.63;;;16.20;99.90;;;;;;4989414;28;20045;-83
2022/10/19 11:13:40;;;;;;;8.18;5.97;;;16.10;99.90;;;;;;4993996;28;20035;-84
2022/10/19 11:16:13;;;;;;;7.13;5.35;;;16.20;99.90;;;;;;4991997;28;20042;-85
2022/10/19 11:19:04;;;;;;;8.75;6.15;;;16.20;99.90;;;;;;4989762;28;20042;-84
2022/10/19 11:22:11;;;;;;;10.88;7.40;;;16.20;99.90;;;;;;4986850;28;20481;-84
2022/10/19 11:24:57;;;;;;;7.82;5.53;;;16.10;99.90;;;;;;4970808;28;20399;-83
2022/10/19 11:27:28;;;;;;;7.50;5.63;;;16.20;99.90;;;;;;4988960;28;20042;-86
2022/10/19 11:30:29;;;;;;;9.07;5.85;;;16.20;99.90;;;;;;4990479;28;20041;-84
2022/10/19 11:33:05;;;;;;;11.07;6.93;;;16.20;99.90;;;;;;4950476;28;20052;-85
2022/10/19 11:35:33;;;;;;;7.68;6.13;;;16.20;99.90;;;;;;4985474;28;20045;-85
2022/10/19 11:38:24;;;;;;;7.80;5.38;;;16.20;99.90;;;;;;4989807;28;20045;-85
2022/10/19 11:41:25;;;;;;;8.32;5.93;;;16.10;99.90;;;;;;4990063;28;20113;-85
2022/10/19 11:44:05;;;;;;;6.35;5.55;;;16.00;99.90;;;;;;4988092;28;20038;-85
2022/10/19 11:46:38;;;;;;;6.95;5.70;;;16.00;99.90;;;;;;4989686;28;20030;-84
2022/10/19 11:49:12;;;;;;;6.30;5.20;;;16.00;99.90;;;;;;4988364;28;20479;-84
2022/10/19 11:51:40;;;;;;;8.50;5.63;;;16.00;99.90;;;;;;4986841;28;20022;-84
2022/10/19 11:54:35;;;;;;;7.65;5.35;;;16.00;99.90;;;;;;4990062;28;20085;-84
2022/10/19 11:57:19;;;;;;;6.53;4.60;;;16.00;99.90;;;;;;4987130;28;20049;-87
2022/10/19 12:00:06;;;;;;;8.27;5.43;;;15.90;99.90;;;;;;4987622;28;20050;-85
2022/10/19 12:02:49;;;;;;;7.13;5.23;;;16.00;99.90;;;;;;4972486;28;20053;-85
2022/10/19 12:05:23;;;;;;;7.80;5.60;;;15.90;99.90;;;;;;4970639;28;20298;-85
2022/10/19 12:08:06;;;;;;;10.50;5.93;;;15.90;99.90;;;;;;4967447;28;20360;-85
2022/10/19 12:10:44;;;;;;;7.50;6.13;;;15.90;99.90;;;;;;4969347;28;20553;-85
2022/10/19 12:13:22;;;;;;;9.60;6.40;;;15.90;99.90;;;;;;4969865;28;20030;-85
2022/10/19 12:15:54;;;;;;;7.05;6.00;;;15.90;99.90;;;;;;4973995;28;20113;-85
2022/10/19 12:18:29;;;;;;;8.27;5.75;;;15.90;99.90;;;;;;4969283;28;20035;-84
2022/10/19 12:20:59;;;;;;;7.97;5.38;;;16.10;99.90;;;;;;4969877;28;20019;-85
2022/10/19 12:23:33;;;;;;;7.07;5.35;;;16.20;99.90;;;;;;4970150;28;20034;-84
2022/10/19 12:26:03;;;;;;;5.80;4.95;;;16.20;99.90;;;;;;4970373;28;20034;-85
2022/10/19 12:28:32;;;;;;;6.82;4.97;;;16.20;99.90;;;;;;4968481;28;20050;-86
2022/10/19 12:31:00;;;;;;;6.60;4.72;;;16.20;99.90;;;;;;4967064;28;20145;-83
2022/10/19 12:33:35;;;;;;;6.18;4.68;;;16.30;99.90;;;;;;4968979;28;20064;-85
2022/10/19 12:36:22;;;;;;;7.28;5.60;;;16.30;99.90;;;;;;4963103;28;20038;-84
2022/10/19 12:39:07;;;;;;;5.78;4.40;;;16.20;99.90;;;;;;4969837;28;20035;-85
2022/10/19 12:42:02;;;;;;;6.63;5.00;;;16.30;99.90;;;;;;4969489;28;20026;-86
2022/10/19 12:44:59;;;;;;;5.75;4.80;;;16.20;99.90;;;;;;4968432;28;20403;-85
2022/10/19 12:47:25;;;;;;;5.63;4.70;;;16.30;99.90;;;;;;4969069;28;20042;-85
2022/10/19 12:49:54;;;;;;;6.78;4.28;;;16.30;99.90;;;;;;4966167;28;20025;-82
2022/10/19 12:52:40;;;;;;;5.65;3.75;;;16.20;99.90;;;;;;4970641;28;20027;-85
2022/10/19 12:55:16;;;;;;;5.07;4.10;;;16.30;99.90;;;;;;4969190;28;20038;-85
2022/10/19 12:57:48;;;;;;;5.25;4.05;;;16.20;99.90;;;;;;4967523;28;20027;-85
2022/10/19 13:00:24;;;;;;;5.57;4.35;;;16.20;99.90;;;;;;4968566;28;20070;-85
2022/10/19 13:03:14;;;;;;;4.40;4.00;;;16.30;99.90;;;;;;4972240;28;20458;-85
2022/10/19 13:05:40;;;;;;;5.55;4.00;;;16.30;99.90;;;;;;4969268;28;20495;-85
2022/10/19 13:08:07;;;;;;;3.78;3.47;;;16.30;99.90;;;;;;4967908;28;20043;-84